createdAt,value
2023-03-26T18:02:19.933Z,2.47
2023-03-26T18:07:59.579Z,2.97
2023-03-26T18:13:43.820Z,3.87
2023-03-26T18:18:52.920Z,4.40
2023-03-26T18:24:00.147Z,4.77
2023-03-26T18:29:15.859Z,4.60
2023-03-26T18:34:26.957Z,5.33
2023-03-26T18:39:32.546Z,4.27
2023-03-26T18:44:39.452Z,5.40
2023-03-26T18:49:48.958Z,4.77
2023-03-26T18:54:56.172Z,5.23
2023-03-26T19:00:18.780Z,5.60
2023-03-26T19:05:28.573Z,5.67
2023-03-26T19:10:34.376Z,5.53
2023-03-26T19:15:39.918Z,6.27
2023-03-26T19:20:50.528Z,6.03
2023-03-26T19:25:57.346Z,5.30
2023-03-26T19:31:10.422Z,5.40
2023-03-26T19:36:23.980Z,5.43
2023-03-26T19:41:34.191Z,4.90
2023-03-26T19:46:53.336Z,4.70
2023-03-26T19:52:16.143Z,3.83
2023-03-26T19:57:21.949Z,3.87
2023-03-26T20:02:27.611Z,3.33
2023-03-26T20:07:39.433Z,3.00
2023-03-26T20:12:44.863Z,2.90
2023-03-26T20:17:52.553Z,2.83
2023-03-26T20:23:01.655Z,3.97
2023-03-26T20:28:09.153Z,3.27
2023-03-26T20:33:25.514Z,3.43
2023-03-26T20:38:39.499Z,3.03
2023-03-26T20:43:45.222Z,3.23
2023-03-26T20:48:51.978Z,3.40
2023-03-26T20:54:00.695Z,3.40
2023-03-26T20:59:10.906Z,2.90
2023-03-26T21:04:17.542Z,2.53
2023-03-26T21:09:34.145Z,3.10
2023-03-26T21:14:41.927Z,2.43
2023-03-26T21:19:48.356Z,3.27
2023-03-26T21:25:04.545Z,3.07
2023-03-26T21:30:16.642Z,3.20
2023-03-26T21:35:23.432Z,3.13
2023-03-26T21:40:32.544Z,2.73
2023-03-26T21:45:38.905Z,3.27
2023-03-26T21:50:45.209Z,2.50
2023-03-26T21:56:01.233Z,2.97
2023-03-26T22:01:19.510Z,2.77
2023-03-26T22:06:27.412Z,2.73
2023-03-26T22:11:35.613Z,2.90
2023-03-26T22:16:41.801Z,2.47
2023-03-26T22:21:47.311Z,2.60
2023-03-26T22:26:55.182Z,2.80
2023-03-26T22:32:00.559Z,2.43
2023-03-26T22:37:06.394Z,2.60
2023-03-26T22:42:14.358Z,3.10
2023-03-26T22:47:21.956Z,2.90
2023-03-26T22:52:27.449Z,3.57
2023-03-26T22:57:35.226Z,3.00
2023-03-26T23:02:40.743Z,2.80
2023-03-26T23:07:46.220Z,2.43
2023-03-26T23:12:54.867Z,2.50
2023-03-26T23:18:02.115Z,2.83
